sensor_id;sensor_type;location;lat;lon;timestamp;P1;durP1;ratioP1;P2;durP2;ratioP2
84638;SDS011;74869;51.924;5.712;2023-12-14T00:02:02;9.10;;;5.10;;
84638;SDS011;74869;51.924;5.712;2023-12-14T00:04:28;10.88;;;5.70;;
84638;SDS011;74869;51.924;5.712;2023-12-14T00:06:54;6.30;;;4.37;;
84638;SDS011;74869;51.924;5.712;2023-12-14T00:09:20;9.45;;;5.60;;
84638;SDS011;74869;51.924;5.712;2023-12-14T00:11:45;9.45;;;5.43;;
84638;SDS011;74869;51.924;5.712;2023-12-14T00:14:10;8.23;;;4.93;;
84638;SDS011;74869;51.924;5.712;2023-12-14T00:16:35;7.60;;;4.53;;
84638;SDS011;74869;51.924;5.712;2023-12-14T00:19:01;10.07;;;5.82;;
84638;SDS011;74869;51.924;5.712;2023-12-14T00:21:27;10.75;;;5.95;;
84638;SDS011;74869;51.924;5.712;2023-12-14T00:23:52;10.85;;;6.63;;
84638;SDS011;74869;51.924;5.712;2023-12-14T00:26:18;10.63;;;5.70;;
84638;SDS011;74869;51.924;5.712;2023-12-14T00:28:43;8.65;;;4.68;;
84638;SDS011;74869;51.924;5.712;2023-12-14T00:31:09;7.22;;;3.70;;
84638;SDS011;74869;51.924;5.712;2023-12-14T00:33:34;8.20;;;4.13;;
84638;SDS011;74869;51.924;5.712;2023-12-14T00:36:00;7.32;;;3.88;;
84638;SDS011;74869;51.924;5.712;2023-12-14T00:38:27;6.97;;;3.77;;
84638;SDS011;74869;51.924;5.712;2023-12-14T00:40:53;8.52;;;4.10;;
84638;SDS011;74869;51.924;5.712;2023-12-14T00:43:19;7.57;;;5.00;;
84638;SDS011;74869;51.924;5.712;2023-12-14T00:45:44;8.57;;;4.87;;
84638;SDS011;74869;51.924;5.712;2023-12-14T00:48:10;8.38;;;5.07;;
84638;SDS011;74869;51.924;5.712;2023-12-14T00:50:36;10.20;;;5.60;;
84638;SDS011;74869;51.924;5.712;2023-12-14T00:53:01;10.77;;;5.40;;
84638;SDS011;74869;51.924;5.712;2023-12-14T00:55:26;11.63;;;6.03;;
84638;SDS011;74869;51.924;5.712;2023-12-14T00:57:52;6.63;;;4.07;;
84638;SDS011;74869;51.924;5.712;2023-12-14T01:00:18;7.13;;;3.70;;
84638;SDS011;74869;51.924;5.712;2023-12-14T01:02:43;6.20;;;3.60;;
84638;SDS011;74869;51.924;5.712;2023-12-14T01:05:09;12.30;;;5.50;;
84638;SDS011;74869;51.924;5.712;2023-12-14T01:07:35;10.68;;;5.82;;
84638;SDS011;74869;51.924;5.712;2023-12-14T01:10:00;10.25;;;5.95;;
84638;SDS011;74869;51.924;5.712;2023-12-14T01:12:26;11.00;;;5.70;;
84638;SDS011;74869;51.924;5.712;2023-12-14T01:14:51;15.47;;;6.40;;
84638;SDS011;74869;51.924;5.712;2023-12-14T01:17:16;14.27;;;8.10;;
84638;SDS011;74869;51.924;5.712;2023-12-14T01:19:42;13.47;;;6.90;;
84638;SDS011;74869;51.924;5.712;2023-12-14T01:22:07;7.68;;;4.20;;
84638;SDS011;74869;51.924;5.712;2023-12-14T01:24:32;9.60;;;5.68;;
84638;SDS011;74869;51.924;5.712;2023-12-14T01:26:58;12.88;;;7.28;;
84638;SDS011;74869;51.924;5.712;2023-12-14T01:29:23;11.68;;;6.75;;
84638;SDS011;74869;51.924;5.712;2023-12-14T01:31:48;9.90;;;5.03;;
84638;SDS011;74869;51.924;5.712;2023-12-14T01:34:15;14.17;;;7.53;;
84638;SDS011;74869;51.924;5.712;2023-12-14T01:36:41;11.00;;;6.38;;
84638;SDS011;74869;51.924;5.712;2023-12-14T01:39:06;6.43;;;4.00;;
84638;SDS011;74869;51.924;5.712;2023-12-14T01:41:32;8.70;;;4.72;;
84638;SDS011;74869;51.924;5.712;2023-12-14T01:43:57;9.52;;;5.50;;
84638;SDS011;74869;51.924;5.712;2023-12-14T01:46:23;9.75;;;5.47;;
84638;SDS011;74869;51.924;5.712;2023-12-14T01:48:48;8.83;;;5.67;;
84638;SDS011;74869;51.924;5.712;2023-12-14T01:51:14;8.23;;;5.33;;
84638;SDS011;74869;51.924;5.712;2023-12-14T01:53:39;10.82;;;6.03;;
84638;SDS011;74869;51.924;5.712;2023-12-14T01:56:06;10.38;;;5.82;;
84638;SDS011;74869;51.924;5.712;2023-12-14T01:58:32;8.57;;;5.00;;
84638;SDS011;74869;51.924;5.712;2023-12-14T02:03:46;11.18;;;6.55;;
84638;SDS011;74869;51.924;5.712;2023-12-14T02:06:13;9.30;;;5.28;;
84638;SDS011;74869;51.924;5.712;2023-12-14T02:08:39;8.85;;;4.97;;
84638;SDS011;74869;51.924;5.712;2023-12-14T02:11:04;8.10;;;5.18;;
84638;SDS011;74869;51.924;5.712;2023-12-14T02:13:29;11.35;;;5.30;;
84638;SDS011;74869;51.924;5.712;2023-12-14T02:15:55;9.40;;;5.00;;
84638;SDS011;74869;51.924;5.712;2023-12-14T02:18:20;13.27;;;7.27;;
84638;SDS011;74869;51.924;5.712;2023-12-14T02:20:45;13.60;;;7.33;;
84638;SDS011;74869;51.924;5.712;2023-12-14T02:23:11;11.03;;;5.63;;
84638;SDS011;74869;51.924;5.712;2023-12-14T02:25:36;8.18;;;4.50;;
84638;SDS011;74869;51.924;5.712;2023-12-14T02:28:01;9.13;;;5.20;;
84638;SDS011;74869;51.924;5.712;2023-12-14T02:30:27;10.10;;;5.80;;
84638;SDS011;74869;51.924;5.712;2023-12-14T02:32:52;11.88;;;6.90;;
84638;SDS011;74869;51.924;5.712;2023-12-14T02:35:18;9.32;;;4.75;;
84638;SDS011;74869;51.924;5.712;2023-12-14T02:37:43;8.33;;;5.33;;
84638;SDS011;74869;51.924;5.712;2023-12-14T02:40:09;10.20;;;5.75;;
84638;SDS011;74869;51.924;5.712;2023-12-14T02:42:35;9.52;;;5.85;;
84638;SDS011;74869;51.924;5.712;2023-12-14T02:45:01;8.45;;;5.00;;
84638;SDS011;74869;51.924;5.712;2023-12-14T02:47:27;9.80;;;5.38;;
84638;SDS011;74869;51.924;5.712;2023-12-14T02:49:54;9.05;;;5.30;;
84638;SDS011;74869;51.924;5.712;2023-12-14T02:52:19;8.75;;;4.88;;
84638;SDS011;74869;51.924;5.712;2023-12-14T02:54:44;11.25;;;6.07;;
84638;SDS011;74869;51.924;5.712;2023-12-14T02:57:10;8.32;;;5.40;;
84638;SDS011;74869;51.924;5.712;2023-12-14T02:59:35;8.70;;;5.00;;
84638;SDS011;74869;51.924;5.712;2023-12-14T03:02:00;7.57;;;4.50;;
84638;SDS011;74869;51.924;5.712;2023-12-14T03:04:26;10.13;;;6.07;;
84638;SDS011;74869;51.924;5.712;2023-12-14T03:06:52;5.93;;;4.00;;
84638;SDS011;74869;51.924;5.712;2023-12-14T03:09:17;6.40;;;4.88;;
84638;SDS011;74869;51.924;5.712;2023-12-14T03:11:44;5.80;;;4.22;;
84638;SDS011;74869;51.924;5.712;2023-12-14T03:14:09;10.15;;;5.57;;
84638;SDS011;74869;51.924;5.712;2023-12-14T03:16:34;5.47;;;3.50;;
84638;SDS011;74869;51.924;5.712;2023-12-14T03:19:00;7.47;;;4.03;;
84638;SDS011;74869;51.924;5.712;2023-12-14T03:21:26;8.02;;;5.03;;
84638;SDS011;74869;51.924;5.712;2023-12-14T03:23:51;5.20;;;3.40;;
84638;SDS011;74869;51.924;5.712;2023-12-14T03:26:17;8.48;;;4.78;;
84638;SDS011;74869;51.924;5.712;2023-12-14T03:28:42;7.65;;;5.00;;
84638;SDS011;74869;51.924;5.712;2023-12-14T03:31:09;5.97;;;4.13;;
84638;SDS011;74869;51.924;5.712;2023-12-14T03:33:36;6.30;;;4.38;;
84638;SDS011;74869;51.924;5.712;2023-12-14T03:36:02;8.88;;;4.65;;
84638;SDS011;74869;51.924;5.712;2023-12-14T03:38:28;6.80;;;3.88;;
84638;SDS011;74869;51.924;5.712;2023-12-14T03:40:53;7.60;;;4.95;;
84638;SDS011;74869;51.924;5.712;2023-12-14T03:43:18;6.77;;;4.73;;
84638;SDS011;74869;51.924;5.712;2023-12-14T03:45:44;11.52;;;6.22;;
84638;SDS011;74869;51.924;5.712;2023-12-14T03:48:09;7.32;;;4.55;;
84638;SDS011;74869;51.924;5.712;2023-12-14T03:50:35;4.15;;;2.88;;
84638;SDS011;74869;51.924;5.712;2023-12-14T03:53:01;5.75;;;3.78;;
84638;SDS011;74869;51.924;5.712;2023-12-14T03:55:26;7.32;;;4.25;;
84638;SDS011;74869;51.924;5.712;2023-12-14T03:57:51;6.05;;;4.05;;
84638;SDS011;74869;51.924;5.712;2023-12-14T04:00:17;7.03;;;4.75;;
84638;SDS011;74869;51.924;5.712;2023-12-14T04:02:43;6.00;;;4.00;;
84638;SDS011;74869;51.924;5.712;2023-12-14T04:05:09;7.03;;;3.72;;
84638;SDS011;74869;51.924;5.712;2023-12-14T04:07:38;4.50;;;3.65;;
84638;SDS011;74869;51.924;5.712;2023-12-14T04:12:36;6.63;;;3.95;;
84638;SDS011;74869;51.924;5.712;2023-12-14T04:15:03;7.63;;;5.18;;
84638;SDS011;74869;51.924;5.712;2023-12-14T04:17:29;4.32;;;3.17;;
84638;SDS011;74869;51.924;5.712;2023-12-14T04:19:55;8.05;;;4.95;;
84638;SDS011;74869;51.924;5.712;2023-12-14T04:22:21;4.63;;;2.92;;
84638;SDS011;74869;51.924;5.712;2023-12-14T04:24:46;5.82;;;3.65;;
84638;SDS011;74869;51.924;5.712;2023-12-14T04:27:11;7.07;;;4.07;;
84638;SDS011;74869;51.924;5.712;2023-12-14T04:29:37;6.10;;;3.93;;
84638;SDS011;74869;51.924;5.712;2023-12-14T04:32:02;5.93;;;3.83;;
84638;SDS011;74869;51.924;5.712;2023-12-14T04:34:28;5.32;;;3.55;;
84638;SDS011;74869;51.924;5.712;2023-12-14T04:36:53;6.60;;;4.47;;
84638;SDS011;74869;51.924;5.712;2023-12-14T04:39:22;5.65;;;3.80;;
84638;SDS011;74869;51.924;5.712;2023-12-14T04:41:49;6.93;;;4.32;;
84638;SDS011;74869;51.924;5.712;2023-12-14T04:44:15;12.95;;;7.43;;
84638;SDS011;74869;51.924;5.712;2023-12-14T04:46:41;5.20;;;4.00;;
84638;SDS011;74869;51.924;5.712;2023-12-14T04:49:07;4.93;;;3.70;;
84638;SDS011;74869;51.924;5.712;2023-12-14T04:51:33;6.82;;;4.47;;
84638;SDS011;74869;51.924;5.712;2023-12-14T04:53:58;7.95;;;4.93;;
84638;SDS011;74869;51.924;5.712;2023-12-14T04:56:23;8.30;;;5.33;;
84638;SDS011;74869;51.924;5.712;2023-12-14T04:58:48;7.90;;;4.67;;
84638;SDS011;74869;51.924;5.712;2023-12-14T05:01:14;8.27;;;4.85;;
84638;SDS011;74869;51.924;5.712;2023-12-14T05:03:39;9.48;;;6.00;;
84638;SDS011;74869;51.924;5.712;2023-12-14T05:06:05;5.45;;;3.05;;
84638;SDS011;74869;51.924;5.712;2023-12-14T05:08:32;7.93;;;5.32;;
84638;SDS011;74869;51.924;5.712;2023-12-14T05:10:57;9.23;;;6.03;;
84638;SDS011;74869;51.924;5.712;2023-12-14T05:13:22;8.30;;;4.90;;
84638;SDS011;74869;51.924;5.712;2023-12-14T05:15:48;8.10;;;5.38;;
84638;SDS011;74869;51.924;5.712;2023-12-14T05:18:13;10.43;;;5.60;;
84638;SDS011;74869;51.924;5.712;2023-12-14T05:20:39;7.43;;;5.00;;
84638;SDS011;74869;51.924;5.712;2023-12-14T05:23:04;9.73;;;5.75;;
84638;SDS011;74869;51.924;5.712;2023-12-14T05:25:29;7.90;;;4.20;;
84638;SDS011;74869;51.924;5.712;2023-12-14T05:27:54;6.87;;;4.30;;
84638;SDS011;74869;51.924;5.712;2023-12-14T05:30:20;4.78;;;3.05;;
84638;SDS011;74869;51.924;5.712;2023-12-14T05:32:45;5.97;;;3.97;;
84638;SDS011;74869;51.924;5.712;2023-12-14T05:35:11;10.00;;;5.20;;
84638;SDS011;74869;51.924;5.712;2023-12-14T05:37:40;6.63;;;4.30;;
84638;SDS011;74869;51.924;5.712;2023-12-14T05:40:07;9.60;;;5.68;;
84638;SDS011;74869;51.924;5.712;2023-12-14T05:42:33;4.82;;;3.60;;
84638;SDS011;74869;51.924;5.712;2023-12-14T05:44:58;6.43;;;4.10;;
84638;SDS011;74869;51.924;5.712;2023-12-14T05:47:25;9.83;;;5.40;;
84638;SDS011;74869;51.924;5.712;2023-12-14T05:49:51;6.32;;;3.83;;
84638;SDS011;74869;51.924;5.712;2023-12-14T05:52:16;7.17;;;4.50;;
84638;SDS011;74869;51.924;5.712;2023-12-14T05:54:42;8.37;;;4.10;;
84638;SDS011;74869;51.924;5.712;2023-12-14T05:57:07;7.77;;;4.90;;
84638;SDS011;74869;51.924;5.712;2023-12-14T05:59:32;4.20;;;3.23;;
84638;SDS011;74869;51.924;5.712;2023-12-14T06:01:58;4.82;;;3.72;;
84638;SDS011;74869;51.924;5.712;2023-12-14T06:04:23;5.65;;;3.95;;
84638;SDS011;74869;51.924;5.712;2023-12-14T06:06:49;5.75;;;4.22;;
84638;SDS011;74869;51.924;5.712;2023-12-14T06:09:15;5.00;;;3.35;;
84638;SDS011;74869;51.924;5.712;2023-12-14T06:11:40;7.53;;;3.80;;
84638;SDS011;74869;51.924;5.712;2023-12-14T06:14:05;7.75;;;4.18;;
84638;SDS011;74869;51.924;5.712;2023-12-14T06:16:31;7.35;;;5.22;;
84638;SDS011;74869;51.924;5.712;2023-12-14T06:18:56;8.27;;;5.35;;
84638;SDS011;74869;51.924;5.712;2023-12-14T06:21:22;6.72;;;4.35;;
84638;SDS011;74869;51.924;5.712;2023-12-14T06:23:50;5.00;;;3.10;;
84638;SDS011;74869;51.924;5.712;2023-12-14T06:26:15;8.33;;;5.47;;
84638;SDS011;74869;51.924;5.712;2023-12-14T06:28:41;6.37;;;3.67;;
84638;SDS011;74869;51.924;5.712;2023-12-14T06:31:06;3.83;;;2.55;;
84638;SDS011;74869;51.924;5.712;2023-12-14T06:33:37;5.18;;;3.75;;
84638;SDS011;74869;51.924;5.712;2023-12-14T06:36:03;6.28;;;3.70;;
84638;SDS011;74869;51.924;5.712;2023-12-14T06:38:29;6.18;;;3.40;;
84638;SDS011;74869;51.924;5.712;2023-12-14T06:40:55;5.07;;;2.92;;
84638;SDS011;74869;51.924;5.712;2023-12-14T06:43:20;9.18;;;5.05;;
84638;SDS011;74869;51.924;5.712;2023-12-14T06:45:45;7.53;;;4.57;;
84638;SDS011;74869;51.924;5.712;2023-12-14T06:48:11;4.77;;;2.90;;
84638;SDS011;74869;51.924;5.712;2023-12-14T06:50:36;9.53;;;5.93;;
84638;SDS011;74869;51.924;5.712;2023-12-14T06:53:01;8.83;;;6.03;;
84638;SDS011;74869;51.924;5.712;2023-12-14T06:55:27;7.03;;;4.78;;
84638;SDS011;74869;51.924;5.712;2023-12-14T06:57:52;4.63;;;2.87;;
84638;SDS011;74869;51.924;5.712;2023-12-14T07:00:18;3.60;;;2.27;;
84638;SDS011;74869;51.924;5.712;2023-12-14T07:02:43;5.70;;;3.45;;
84638;SDS011;74869;51.924;5.712;2023-12-14T07:05:09;4.53;;;2.60;;
84638;SDS011;74869;51.924;5.712;2023-12-14T07:07:34;4.72;;;2.90;;
84638;SDS011;74869;51.924;5.712;2023-12-14T07:09:59;9.68;;;5.70;;
84638;SDS011;74869;51.924;5.712;2023-12-14T07:12:25;8.97;;;5.50;;
84638;SDS011;74869;51.924;5.712;2023-12-14T07:14:50;7.33;;;3.20;;
84638;SDS011;74869;51.924;5.712;2023-12-14T07:17:15;5.33;;;3.20;;
84638;SDS011;74869;51.924;5.712;2023-12-14T07:19:40;7.22;;;3.35;;
84638;SDS011;74869;51.924;5.712;2023-12-14T07:22:06;8.13;;;4.50;;
84638;SDS011;74869;51.924;5.712;2023-12-14T07:24:31;5.05;;;3.30;;
84638;SDS011;74869;51.924;5.712;2023-12-14T07:26:57;7.00;;;4.07;;
84638;SDS011;74869;51.924;5.712;2023-12-14T07:29:22;5.88;;;4.03;;
84638;SDS011;74869;51.924;5.712;2023-12-14T07:31:47;5.97;;;3.33;;
84638;SDS011;74869;51.924;5.712;2023-12-14T07:34:13;7.50;;;4.30;;
84638;SDS011;74869;51.924;5.712;2023-12-14T07:36:38;5.50;;;3.33;;
84638;SDS011;74869;51.924;5.712;2023-12-14T07:39:03;8.83;;;4.73;;
84638;SDS011;74869;51.924;5.712;2023-12-14T07:41:29;5.72;;;3.13;;
84638;SDS011;74869;51.924;5.712;2023-12-14T07:43:57;5.82;;;3.67;;
84638;SDS011;74869;51.924;5.712;2023-12-14T07:46:23;8.98;;;4.88;;
84638;SDS011;74869;51.924;5.712;2023-12-14T07:48:48;5.22;;;3.30;;
84638;SDS011;74869;51.924;5.712;2023-12-14T07:51:14;6.90;;;3.80;;
84638;SDS011;74869;51.924;5.712;2023-12-14T07:53:39;7.82;;;4.80;;
84638;SDS011;74869;51.924;5.712;2023-12-14T07:56:06;5.72;;;3.38;;
84638;SDS011;74869;51.924;5.712;2023-12-14T07:58:31;4.55;;;3.10;;
84638;SDS011;74869;51.924;5.712;2023-12-14T08:00:57;5.35;;;3.78;;
84638;SDS011;74869;51.924;5.712;2023-12-14T08:03:22;4.13;;;3.13;;
84638;SDS011;74869;51.924;5.712;2023-12-14T08:05:48;8.23;;;4.78;;
84638;SDS011;74869;51.924;5.712;2023-12-14T08:08:13;5.25;;;3.33;;
84638;SDS011;74869;51.924;5.712;2023-12-14T08:10:38;5.57;;;3.30;;
84638;SDS011;74869;51.924;5.712;2023-12-14T08:13:03;5.13;;;3.20;;
84638;SDS011;74869;51.924;5.712;2023-12-14T08:15:29;8.03;;;3.73;;
84638;SDS011;74869;51.924;5.712;2023-12-14T08:17:55;6.68;;;3.92;;
84638;SDS011;74869;51.924;5.712;2023-12-14T08:20:20;9.18;;;4.20;;
84638;SDS011;74869;51.924;5.712;2023-12-14T08:22:46;7.60;;;4.10;;
84638;SDS011;74869;51.924;5.712;2023-12-14T08:25:12;4.32;;;3.22;;
84638;SDS011;74869;51.924;5.712;2023-12-14T08:27:39;4.53;;;3.15;;
84638;SDS011;74869;51.924;5.712;2023-12-14T08:30:05;5.22;;;3.42;;
84638;SDS011;74869;51.924;5.712;2023-12-14T08:32:30;6.00;;;3.92;;
84638;SDS011;74869;51.924;5.712;2023-12-14T08:34:56;5.57;;;3.10;;
84638;SDS011;74869;51.924;5.712;2023-12-14T08:37:21;3.77;;;2.53;;
84638;SDS011;74869;51.924;5.712;2023-12-14T08:39:46;6.03;;;3.88;;
84638;SDS011;74869;51.924;5.712;2023-12-14T08:42:12;5.32;;;3.63;;
84638;SDS011;74869;51.924;5.712;2023-12-14T08:44:40;4.40;;;2.33;;
84638;SDS011;74869;51.924;5.712;2023-12-14T08:47:06;6.05;;;3.88;;
84638;SDS011;74869;51.924;5.712;2023-12-14T08:49:34;4.25;;;3.33;;
84638;SDS011;74869;51.924;5.712;2023-12-14T08:52:00;5.63;;;3.35;;
84638;SDS011;74869;51.924;5.712;2023-12-14T08:54:25;7.15;;;4.22;;
84638;SDS011;74869;51.924;5.712;2023-12-14T08:56:50;6.63;;;4.00;;
84638;SDS011;74869;51.924;5.712;2023-12-14T08:59:16;5.67;;;3.30;;
84638;SDS011;74869;51.924;5.712;2023-12-14T09:01:41;4.63;;;3.03;;
84638;SDS011;74869;51.924;5.712;2023-12-14T09:04:07;5.35;;;2.30;;
84638;SDS011;74869;51.924;5.712;2023-12-14T09:06:32;4.80;;;3.23;;
84638;SDS011;74869;51.924;5.712;2023-12-14T09:08:57;4.83;;;3.53;;
84638;SDS011;74869;51.924;5.712;2023-12-14T09:11:24;5.15;;;3.17;;
84638;SDS011;74869;51.924;5.712;2023-12-14T09:13:49;4.95;;;3.10;;
84638;SDS011;74869;51.924;5.712;2023-12-14T09:16:15;5.05;;;3.38;;
84638;SDS011;74869;51.924;5.712;2023-12-14T09:18:41;4.87;;;3.17;;
84638;SDS011;74869;51.924;5.712;2023-12-14T09:21:07;8.32;;;4.10;;
84638;SDS011;74869;51.924;5.712;2023-12-14T09:23:32;5.83;;;3.53;;
84638;SDS011;74869;51.924;5.712;2023-12-14T09:25:57;6.13;;;3.70;;
84638;SDS011;74869;51.924;5.712;2023-12-14T09:28:24;6.43;;;3.80;;
84638;SDS011;74869;51.924;5.712;2023-12-14T09:30:50;4.32;;;2.95;;
84638;SDS011;74869;51.924;5.712;2023-12-14T09:33:15;3.47;;;2.30;;
84638;SDS011;74869;51.924;5.712;2023-12-14T09:35:40;5.88;;;3.88;;
84638;SDS011;74869;51.924;5.712;2023-12-14T09:38:07;7.20;;;3.42;;
84638;SDS011;74869;51.924;5.712;2023-12-14T09:40:33;4.28;;;2.75;;
84638;SDS011;74869;51.924;5.712;2023-12-14T09:43:00;5.50;;;3.50;;
84638;SDS011;74869;51.924;5.712;2023-12-14T09:45:29;3.78;;;2.65;;
84638;SDS011;74869;51.924;5.712;2023-12-14T09:47:58;4.97;;;3.15;;
84638;SDS011;74869;51.924;5.712;2023-12-14T09:50:25;4.32;;;2.25;;
84638;SDS011;74869;51.924;5.712;2023-12-14T09:52:50;5.18;;;3.03;;
84638;SDS011;74869;51.924;5.712;2023-12-14T09:55:16;3.53;;;2.28;;
84638;SDS011;74869;51.924;5.712;2023-12-14T09:57:41;6.20;;;3.95;;
84638;SDS011;74869;51.924;5.712;2023-12-14T10:00:07;5.05;;;3.28;;
84638;SDS011;74869;51.924;5.712;2023-12-14T10:02:35;7.43;;;4.38;;
84638;SDS011;74869;51.924;5.712;2023-12-14T10:05:00;4.30;;;3.13;;
84638;SDS011;74869;51.924;5.712;2023-12-14T10:07:26;6.03;;;3.38;;
84638;SDS011;74869;51.924;5.712;2023-12-14T10:09:51;3.73;;;2.93;;
84638;SDS011;74869;51.924;5.712;2023-12-14T10:12:18;4.45;;;2.75;;
84638;SDS011;74869;51.924;5.712;2023-12-14T10:14:43;5.22;;;3.75;;
84638;SDS011;74869;51.924;5.712;2023-12-14T10:17:19;6.60;;;3.97;;
84638;SDS011;74869;51.924;5.712;2023-12-14T10:19:46;6.45;;;2.75;;
84638;SDS011;74869;51.924;5.712;2023-12-14T10:22:15;5.25;;;3.45;;
84638;SDS011;74869;51.924;5.712;2023-12-14T10:24:44;6.43;;;3.97;;
84638;SDS011;74869;51.924;5.712;2023-12-14T10:27:10;4.88;;;3.08;;
84638;SDS011;74869;51.924;5.712;2023-12-14T10:29:39;3.33;;;2.53;;
84638;SDS011;74869;51.924;5.712;2023-12-14T10:32:04;3.03;;;2.40;;
84638;SDS011;74869;51.924;5.712;2023-12-14T10:34:35;4.10;;;3.30;;
84638;SDS011;74869;51.924;5.712;2023-12-14T10:37:01;4.63;;;3.35;;
84638;SDS011;74869;51.924;5.712;2023-12-14T10:39:30;4.50;;;2.95;;
84638;SDS011;74869;51.924;5.712;2023-12-14T10:41:56;5.22;;;3.08;;
84638;SDS011;74869;51.924;5.712;2023-12-14T10:44:25;6.82;;;4.38;;
84638;SDS011;74869;51.924;5.712;2023-12-14T10:46:54;5.43;;;3.72;;
84638;SDS011;74869;51.924;5.712;2023-12-14T10:49:23;5.53;;;3.85;;
84638;SDS011;74869;51.924;5.712;2023-12-14T10:51:51;3.80;;;3.13;;
84638;SDS011;74869;51.924;5.712;2023-12-14T10:54:20;4.05;;;2.53;;
84638;SDS011;74869;51.924;5.712;2023-12-14T10:56:46;5.43;;;3.00;;
84638;SDS011;74869;51.924;5.712;2023-12-14T10:59:12;3.35;;;2.35;;
84638;SDS011;74869;51.924;5.712;2023-12-14T11:01:41;3.35;;;2.33;;
84638;SDS011;74869;51.924;5.712;2023-12-14T11:04:06;5.27;;;3.60;;
84638;SDS011;74869;51.924;5.712;2023-12-14T11:06:38;4.90;;;3.10;;
84638;SDS011;74869;51.924;5.712;2023-12-14T11:09:05;4.43;;;2.95;;
84638;SDS011;74869;51.924;5.712;2023-12-14T11:11:41;4.85;;;2.75;;
84638;SDS011;74869;51.924;5.712;2023-12-14T11:14:12;4.30;;;2.60;;
84638;SDS011;74869;51.924;5.712;2023-12-14T11:16:38;5.20;;;3.15;;
84638;SDS011;74869;51.924;5.712;2023-12-14T11:24:35;4.38;;;3.00;;
84638;SDS011;74869;51.924;5.712;2023-12-14T11:27:07;4.13;;;2.38;;
84638;SDS011;74869;51.924;5.712;2023-12-14T11:29:32;2.78;;;1.92;;
84638;SDS011;74869;51.924;5.712;2023-12-14T11:31:58;5.15;;;3.42;;
84638;SDS011;74869;51.924;5.712;2023-12-14T11:34:24;9.38;;;5.03;;
84638;SDS011;74869;51.924;5.712;2023-12-14T11:36:50;3.88;;;2.80;;
84638;SDS011;74869;51.924;5.712;2023-12-14T11:39:15;9.90;;;5.90;;
84638;SDS011;74869;51.924;5.712;2023-12-14T11:41:41;5.87;;;3.67;;
84638;SDS011;74869;51.924;5.712;2023-12-14T11:44:06;10.80;;;6.22;;
84638;SDS011;74869;51.924;5.712;2023-12-14T11:46:32;5.95;;;3.80;;
84638;SDS011;74869;51.924;5.712;2023-12-14T11:48:57;4.07;;;2.90;;
84638;SDS011;74869;51.924;5.712;2023-12-14T11:51:23;7.07;;;3.53;;
84638;SDS011;74869;51.924;5.712;2023-12-14T11:53:51;6.97;;;4.30;;
84638;SDS011;74869;51.924;5.712;2023-12-14T11:56:19;3.08;;;2.38;;
84638;SDS011;74869;51.924;5.712;2023-12-14T11:58:48;6.22;;;3.72;;
84638;SDS011;74869;51.924;5.712;2023-12-14T12:01:17;6.20;;;3.92;;
84638;SDS011;74869;51.924;5.712;2023-12-14T12:03:44;6.43;;;3.90;;
84638;SDS011;74869;51.924;5.712;2023-12-14T12:06:23;3.97;;;3.13;;
84638;SDS011;74869;51.924;5.712;2023-12-14T12:08:50;5.60;;;3.60;;
84638;SDS011;74869;51.924;5.712;2023-12-14T12:11:16;7.20;;;4.70;;
84638;SDS011;74869;51.924;5.712;2023-12-14T12:13:43;9.43;;;4.97;;
84638;SDS011;74869;51.924;5.712;2023-12-14T12:16:08;7.33;;;4.50;;
84638;SDS011;74869;51.924;5.712;2023-12-14T12:18:33;6.50;;;4.60;;
84638;SDS011;74869;51.924;5.712;2023-12-14T12:20:58;7.57;;;5.30;;
84638;SDS011;74869;51.924;5.712;2023-12-14T12:23:29;8.05;;;5.05;;
84638;SDS011;74869;51.924;5.712;2023-12-14T12:25:54;6.38;;;4.10;;
84638;SDS011;74869;51.924;5.712;2023-12-14T12:28:20;7.07;;;5.13;;
84638;SDS011;74869;51.924;5.712;2023-12-14T12:30:46;5.97;;;4.95;;
84638;SDS011;74869;51.924;5.712;2023-12-14T12:33:12;7.03;;;4.80;;
84638;SDS011;74869;51.924;5.712;2023-12-14T12:35:38;5.55;;;4.28;;
84638;SDS011;74869;51.924;5.712;2023-12-14T12:38:03;6.13;;;4.80;;
84638;SDS011;74869;51.924;5.712;2023-12-14T12:40:28;4.93;;;4.07;;
84638;SDS011;74869;51.924;5.712;2023-12-14T12:42:56;8.40;;;4.13;;
84638;SDS011;74869;51.924;5.712;2023-12-14T12:45:21;6.68;;;3.92;;
84638;SDS011;74869;51.924;5.712;2023-12-14T12:47:47;6.25;;;4.32;;
84638;SDS011;74869;51.924;5.712;2023-12-14T12:50:13;5.65;;;3.92;;
84638;SDS011;74869;51.924;5.712;2023-12-14T12:52:38;7.78;;;4.38;;
84638;SDS011;74869;51.924;5.712;2023-12-14T12:55:07;7.95;;;5.97;;
84638;SDS011;74869;51.924;5.712;2023-12-14T12:59:59;4.57;;;3.33;;
84638;SDS011;74869;51.924;5.712;2023-12-14T13:02:24;7.50;;;4.37;;
84638;SDS011;74869;51.924;5.712;2023-12-14T13:04:50;8.33;;;3.77;;
84638;SDS011;74869;51.924;5.712;2023-12-14T13:13:09;6.90;;;4.57;;
84638;SDS011;74869;51.924;5.712;2023-12-14T13:15:37;7.22;;;5.43;;
84638;SDS011;74869;51.924;5.712;2023-12-14T13:18:04;7.65;;;5.68;;
84638;SDS011;74869;51.924;5.712;2023-12-14T13:20:29;8.90;;;5.90;;
84638;SDS011;74869;51.924;5.712;2023-12-14T13:22:54;9.55;;;5.55;;
84638;SDS011;74869;51.924;5.712;2023-12-14T13:25:20;9.57;;;6.63;;
84638;SDS011;74869;51.924;5.712;2023-12-14T13:27:47;8.93;;;6.35;;
84638;SDS011;74869;51.924;5.712;2023-12-14T13:30:13;10.13;;;6.20;;
84638;SDS011;74869;51.924;5.712;2023-12-14T13:32:42;10.05;;;5.95;;
84638;SDS011;74869;51.924;5.712;2023-12-14T13:35:07;10.10;;;6.77;;
84638;SDS011;74869;51.924;5.712;2023-12-14T13:37:33;9.00;;;5.95;;
84638;SDS011;74869;51.924;5.712;2023-12-14T13:39:59;10.70;;;6.32;;
84638;SDS011;74869;51.924;5.712;2023-12-14T13:42:24;9.48;;;6.43;;
84638;SDS011;74869;51.924;5.712;2023-12-14T13:44:50;10.30;;;6.68;;
84638;SDS011;74869;51.924;5.712;2023-12-14T13:47:15;10.80;;;6.15;;
84638;SDS011;74869;51.924;5.712;2023-12-14T13:49:40;11.00;;;6.13;;
84638;SDS011;74869;51.924;5.712;2023-12-14T13:52:06;13.07;;;7.00;;
84638;SDS011;74869;51.924;5.712;2023-12-14T13:54:31;10.13;;;6.28;;
84638;SDS011;74869;51.924;5.712;2023-12-14T13:56:56;7.63;;;5.22;;
84638;SDS011;74869;51.924;5.712;2023-12-14T13:59:22;11.68;;;6.55;;
84638;SDS011;74869;51.924;5.712;2023-12-14T14:01:48;12.18;;;6.22;;
84638;SDS011;74869;51.924;5.712;2023-12-14T14:04:17;10.25;;;6.43;;
84638;SDS011;74869;51.924;5.712;2023-12-14T14:06:43;9.95;;;5.88;;
84638;SDS011;74869;51.924;5.712;2023-12-14T14:09:08;8.93;;;5.90;;
84638;SDS011;74869;51.924;5.712;2023-12-14T14:11:33;11.10;;;6.55;;
84638;SDS011;74869;51.924;5.712;2023-12-14T14:14:01;12.18;;;6.40;;
84638;SDS011;74869;51.924;5.712;2023-12-14T14:16:26;9.90;;;6.53;;
84638;SDS011;74869;51.924;5.712;2023-12-14T14:18:52;10.55;;;6.38;;
84638;SDS011;74869;51.924;5.712;2023-12-14T14:21:17;11.27;;;6.55;;
84638;SDS011;74869;51.924;5.712;2023-12-14T14:23:43;10.57;;;6.70;;
84638;SDS011;74869;51.924;5.712;2023-12-14T14:26:09;12.77;;;7.05;;
84638;SDS011;74869;51.924;5.712;2023-12-14T14:28:34;12.95;;;6.93;;
84638;SDS011;74869;51.924;5.712;2023-12-14T14:31:00;10.10;;;6.17;;
84638;SDS011;74869;51.924;5.712;2023-12-14T14:33:25;9.00;;;6.20;;
84638;SDS011;74869;51.924;5.712;2023-12-14T14:35:51;10.13;;;6.05;;
84638;SDS011;74869;51.924;5.712;2023-12-14T14:38:17;12.23;;;6.57;;
84638;SDS011;74869;51.924;5.712;2023-12-14T14:40:42;12.70;;;7.28;;
84638;SDS011;74869;51.924;5.712;2023-12-14T14:43:08;9.35;;;6.00;;
84638;SDS011;74869;51.924;5.712;2023-12-14T14:45:34;16.85;;;8.27;;
84638;SDS011;74869;51.924;5.712;2023-12-14T14:48:00;18.00;;;8.30;;
84638;SDS011;74869;51.924;5.712;2023-12-14T14:50:25;12.27;;;6.25;;
84638;SDS011;74869;51.924;5.712;2023-12-14T14:52:52;12.00;;;6.30;;
84638;SDS011;74869;51.924;5.712;2023-12-14T14:55:17;17.48;;;8.32;;
84638;SDS011;74869;51.924;5.712;2023-12-14T14:57:43;18.38;;;8.32;;